createdAt,value
2018-07-22T00:00:34.954Z,8.90
2018-07-22T00:03:03.373Z,8.00
2018-07-22T00:05:31.731Z,8.37
2018-07-22T00:08:00.146Z,8.27
2018-07-22T00:10:29.786Z,8.23
2018-07-22T00:12:59.050Z,8.30
2018-07-22T00:15:27.582Z,10.73
2018-07-22T00:17:55.997Z,11.50
2018-07-22T00:20:24.469Z,11.07
2018-07-22T00:22:52.950Z,9.37
2018-07-22T00:25:21.498Z,9.50
2018-07-22T00:27:50.063Z,9.70
2018-07-22T00:30:18.531Z,10.17
2018-07-22T00:32:46.921Z,12.73
2018-07-22T00:35:15.306Z,9.90
2018-07-22T00:37:43.794Z,8.97
2018-07-22T00:40:12.652Z,11.80
2018-07-22T00:42:41.042Z,10.10
2018-07-22T00:45:14.443Z,11.70
2018-07-22T00:47:43.167Z,10.93
2018-07-22T00:50:11.578Z,10.83
2018-07-22T00:52:40.594Z,10.50
2018-07-22T00:55:09.130Z,12.53
2018-07-22T00:57:37.591Z,11.97
2018-07-22T01:00:06.341Z,10.23
2018-07-22T01:02:34.727Z,11.63
2018-07-22T01:05:03.088Z,12.17
2018-07-22T01:07:31.556Z,13.60
2018-07-22T01:10:00.025Z,12.70
2018-07-22T01:12:28.429Z,11.73
2018-07-22T01:14:56.907Z,14.20
2018-07-22T01:17:25.158Z,12.20
2018-07-22T01:19:55.078Z,11.77
2018-07-22T01:22:25.172Z,12.53
2018-07-22T01:24:54.254Z,13.90
2018-07-22T01:27:22.998Z,13.27
2018-07-22T01:29:51.546Z,12.40
2018-07-22T01:32:19.948Z,13.20
2018-07-22T01:34:48.568Z,11.33
2018-07-22T01:37:16.931Z,13.80
2018-07-22T01:39:45.399Z,13.93
2018-07-22T01:42:13.871Z,13.67
2018-07-22T01:44:42.324Z,17.40
2018-07-22T01:47:10.878Z,15.10
2018-07-22T01:49:39.326Z,16.10
2018-07-22T01:52:07.907Z,14.33
2018-07-22T01:54:36.347Z,13.70
2018-07-22T01:57:04.766Z,12.33
2018-07-22T01:59:33.178Z,12.77
2018-07-22T02:02:01.572Z,13.90
2018-07-22T02:04:29.995Z,12.37
2018-07-22T02:06:58.418Z,11.43
2018-07-22T02:09:26.832Z,13.40
2018-07-22T02:11:55.355Z,15.80
2018-07-22T02:14:23.946Z,13.10
2018-07-22T02:16:52.554Z,14.43
2018-07-22T02:19:21.395Z,12.53
2018-07-22T02:21:50.031Z,14.33
2018-07-22T02:24:18.462Z,14.17
2018-07-22T02:26:46.888Z,15.57
2018-07-22T02:29:15.343Z,14.57
2018-07-22T02:31:43.738Z,14.77
2018-07-22T02:34:12.183Z,14.00
2018-07-22T02:36:40.569Z,11.87
2018-07-22T02:39:11.054Z,14.83
2018-07-22T02:41:39.472Z,15.23
2018-07-22T02:44:08.189Z,21.17
2018-07-22T02:46:36.956Z,16.00
2018-07-22T02:49:05.691Z,14.43
2018-07-22T02:51:34.371Z,16.57
2018-07-22T02:54:02.694Z,17.50
2018-07-22T02:56:31.135Z,14.37
2018-07-22T02:59:03.630Z,15.50
2018-07-22T03:01:32.363Z,11.53
2018-07-22T03:04:01.048Z,11.63
2018-07-22T03:06:29.496Z,20.63
2018-07-22T03:08:57.907Z,14.70
2018-07-22T03:11:26.330Z,14.67
2018-07-22T03:13:54.841Z,16.17
2018-07-22T03:16:23.318Z,12.40
2018-07-22T03:18:51.983Z,13.07
2018-07-22T03:21:20.358Z,10.53
2018-07-22T03:23:48.950Z,12.53
2018-07-22T03:26:17.882Z,11.73
2018-07-22T03:28:46.295Z,13.37
2018-07-22T03:31:14.750Z,10.97
2018-07-22T03:33:43.128Z,13.13
2018-07-22T03:36:11.530Z,13.73
2018-07-22T03:38:40.333Z,16.37
2018-07-22T03:41:08.963Z,11.37
2018-07-22T03:43:37.402Z,11.53
2018-07-22T03:46:06.099Z,14.67
2018-07-22T03:48:34.595Z,11.20
2018-07-22T03:51:02.931Z,12.30
2018-07-22T03:53:31.387Z,13.37
2018-07-22T03:55:59.823Z,12.10
2018-07-22T03:58:28.264Z,13.73
2018-07-22T04:00:56.701Z,15.50
2018-07-22T04:03:25.282Z,14.17
2018-07-22T04:05:53.906Z,15.13
2018-07-22T04:08:22.624Z,13.63
2018-07-22T04:10:51.103Z,13.97
2018-07-22T04:13:19.949Z,15.97
2018-07-22T04:15:48.636Z,14.50
2018-07-22T04:18:17.014Z,16.73
2018-07-22T04:20:45.478Z,16.17
2018-07-22T04:23:13.809Z,13.37
2018-07-22T04:25:42.254Z,15.67
2018-07-22T04:28:10.830Z,13.83
2018-07-22T04:30:39.523Z,16.13
2018-07-22T04:33:08.089Z,14.97
2018-07-22T04:35:36.552Z,14.97
2018-07-22T04:38:05.669Z,15.43
2018-07-22T04:40:34.145Z,18.80
2018-07-22T04:43:02.587Z,15.60
2018-07-22T04:45:31.027Z,15.27
2018-07-22T04:47:59.470Z,16.23
2018-07-22T04:50:27.939Z,13.17
2018-07-22T04:52:56.456Z,13.60
2018-07-22T04:55:24.758Z,13.97
2018-07-22T04:57:53.278Z,13.43
2018-07-22T05:00:22.039Z,13.93
2018-07-22T05:02:50.628Z,11.83
2018-07-22T05:05:19.377Z,12.63
2018-07-22T05:07:47.885Z,16.30
2018-07-22T05:10:16.390Z,13.47
2018-07-22T05:12:44.851Z,13.67
2018-07-22T05:15:13.153Z,13.57
2018-07-22T05:17:41.570Z,14.47
2018-07-22T05:20:10.110Z,13.83
2018-07-22T05:22:38.513Z,14.63
2018-07-22T05:25:07.132Z,14.90
2018-07-22T05:27:35.572Z,14.67
2018-07-22T05:30:04.124Z,13.83
2018-07-22T05:32:32.663Z,13.87
2018-07-22T05:35:01.046Z,13.30
2018-07-22T05:37:29.648Z,13.53
2018-07-22T05:39:58.108Z,13.30
2018-07-22T05:42:26.555Z,13.03
2018-07-22T05:44:55.599Z,15.23
2018-07-22T05:47:24.243Z,13.80
2018-07-22T05:49:52.863Z,15.97
2018-07-22T05:52:21.506Z,12.23
2018-07-22T05:54:50.501Z,10.60
2018-07-22T05:57:20.312Z,12.50
2018-07-22T05:59:49.278Z,12.90
2018-07-22T06:02:18.098Z,12.67
2018-07-22T06:04:46.984Z,11.33
2018-07-22T06:07:15.636Z,10.67
2018-07-22T06:09:44.066Z,11.57
2018-07-22T06:12:12.627Z,10.73
2018-07-22T06:14:41.052Z,10.67
2018-07-22T06:17:09.557Z,10.67
2018-07-22T06:19:38.114Z,9.03
2018-07-22T06:22:06.519Z,9.90
2018-07-22T06:24:34.955Z,9.80
2018-07-22T06:27:03.349Z,9.90
2018-07-22T06:29:31.839Z,12.60
2018-07-22T06:31:59.998Z,9.90
2018-07-22T06:34:28.366Z,11.20
2018-07-22T06:36:56.771Z,10.73
2018-07-22T06:39:25.232Z,12.43
2018-07-22T06:41:53.739Z,11.50
2018-07-22T06:44:22.489Z,12.10
2018-07-22T06:46:51.189Z,10.73
2018-07-22T06:49:19.742Z,12.17
2018-07-22T06:51:48.819Z,10.73
2018-07-22T06:54:17.265Z,10.60
2018-07-22T06:56:45.710Z,10.83
2018-07-22T06:59:14.089Z,11.60
2018-07-22T07:01:42.575Z,10.67
2018-07-22T07:04:12.750Z,10.50
2018-07-22T07:06:41.183Z,11.23
2018-07-22T07:09:11.315Z,10.20
2018-07-22T07:11:40.008Z,12.63
2018-07-22T07:14:08.796Z,10.57
2018-07-22T07:16:37.520Z,10.27
2018-07-22T07:19:05.978Z,9.97
2018-07-22T07:21:34.439Z,10.07
2018-07-22T07:24:02.915Z,10.67
2018-07-22T07:26:31.387Z,9.70
2018-07-22T07:28:59.786Z,9.77
2018-07-22T07:31:28.169Z,10.27
2018-07-22T07:33:56.525Z,9.57
2018-07-22T07:36:24.943Z,8.67
2018-07-22T07:38:53.462Z,9.77
2018-07-22T07:41:22.093Z,11.27
2018-07-22T07:43:50.773Z,9.80
2018-07-22T07:46:19.647Z,10.33
2018-07-22T07:48:48.150Z,11.30
2018-07-22T07:51:16.562Z,9.83
2018-07-22T07:53:44.996Z,9.73
2018-07-22T07:56:13.411Z,8.47
2018-07-22T07:58:41.787Z,9.23
2018-07-22T08:01:10.427Z,11.27
2018-07-22T08:03:38.979Z,8.90
2018-07-22T08:06:07.363Z,10.10
2018-07-22T08:08:35.785Z,9.80
2018-07-22T08:11:04.216Z,9.27
2018-07-22T08:13:32.638Z,9.97
2018-07-22T08:16:01.022Z,10.07
2018-07-22T08:18:29.463Z,10.87
2018-07-22T08:20:57.873Z,9.87
2018-07-22T08:23:26.490Z,9.80
2018-07-22T08:25:55.152Z,9.93
2018-07-22T08:28:34.772Z,10.73
2018-07-22T08:31:03.245Z,10.43
2018-07-22T08:33:31.569Z,9.17
2018-07-22T08:35:59.965Z,9.63
2018-07-22T08:38:28.468Z,8.70
2018-07-22T08:40:57.074Z,9.47
2018-07-22T08:43:26.438Z,13.23
2018-07-22T08:45:55.035Z,10.03
2018-07-22T08:48:23.847Z,11.97
2018-07-22T08:50:52.710Z,9.30
2018-07-22T08:53:21.463Z,11.30
2018-07-22T08:55:50.296Z,9.83
2018-07-22T08:58:19.238Z,9.40
2018-07-22T09:00:47.925Z,10.77
2018-07-22T09:03:16.440Z,13.03
2018-07-22T09:05:45.028Z,9.77
2018-07-22T09:08:13.463Z,9.47
2018-07-22T09:10:42.064Z,9.50
2018-07-22T09:13:10.587Z,8.80
2018-07-22T09:15:39.074Z,10.47
2018-07-22T09:18:07.668Z,8.37
2018-07-22T09:20:36.081Z,8.83
2018-07-22T09:23:04.522Z,7.97
2018-07-22T09:25:32.549Z,9.57
2018-07-22T09:28:00.962Z,7.87
2018-07-22T09:30:29.490Z,9.63
2018-07-22T09:32:57.879Z,9.47
2018-07-22T09:35:26.351Z,8.77
2018-07-22T09:37:55.330Z,11.23
2018-07-22T09:40:23.803Z,8.77
2018-07-22T09:42:52.358Z,8.50
2018-07-22T09:45:20.964Z,8.47
2018-07-22T09:47:49.571Z,8.90
2018-07-22T09:50:18.684Z,10.30
2018-07-22T09:52:47.009Z,9.27
2018-07-22T09:55:15.472Z,8.73
2018-07-22T09:57:43.958Z,8.67
2018-07-22T10:00:16.970Z,7.43
2018-07-22T10:02:45.537Z,6.50
2018-07-22T10:05:14.035Z,7.27
2018-07-22T10:07:42.430Z,7.63
2018-07-22T10:10:10.826Z,8.03
2018-07-22T10:12:39.324Z,7.73
2018-07-22T10:15:08.525Z,9.13
2018-07-22T10:17:37.151Z,7.60
2018-07-22T10:20:05.496Z,7.20
2018-07-22T10:22:33.947Z,8.87
2018-07-22T10:25:02.309Z,9.03
2018-07-22T10:27:30.760Z,7.93
2018-07-22T10:29:59.126Z,8.00
2018-07-22T10:32:27.543Z,8.50
2018-07-22T10:34:56.047Z,10.70
2018-07-22T10:37:24.459Z,9.17
2018-07-22T10:39:52.878Z,8.40
2018-07-22T10:42:21.471Z,7.83
2018-07-22T10:44:50.231Z,8.67
2018-07-22T10:47:19.312Z,8.50
2018-07-22T10:49:48.492Z,8.83
2018-07-22T10:52:17.151Z,8.57
2018-07-22T10:54:45.724Z,11.63
2018-07-22T10:57:14.186Z,9.87
2018-07-22T10:59:42.720Z,7.73
2018-07-22T11:02:11.131Z,8.27
2018-07-22T11:04:39.623Z,7.73
2018-07-22T11:07:08.062Z,6.70
2018-07-22T11:09:36.583Z,7.00
2018-07-22T11:12:04.963Z,6.97
2018-07-22T11:14:33.114Z,6.53
2018-07-22T11:17:02.131Z,6.90
2018-07-22T11:19:30.516Z,7.30
2018-07-22T11:21:59.312Z,6.00
2018-07-22T11:24:27.667Z,6.93
2018-07-22T11:26:56.219Z,7.97
2018-07-22T11:29:27.491Z,8.13
2018-07-22T11:31:56.038Z,7.80
2018-07-22T11:34:24.905Z,7.87
2018-07-22T11:36:53.570Z,7.97
2018-07-22T11:39:22.132Z,9.53
2018-07-22T11:41:50.717Z,10.17
2018-07-22T11:44:20.275Z,9.23
2018-07-22T11:46:48.899Z,9.47
2018-07-22T11:49:17.303Z,9.73
2018-07-22T11:51:45.689Z,8.73
2018-07-22T11:54:14.269Z,9.37
2018-07-22T11:56:42.787Z,8.73
2018-07-22T11:59:11.223Z,9.63
2018-07-22T12:01:39.919Z,9.53
2018-07-22T12:04:08.381Z,9.57
2018-07-22T12:06:36.838Z,10.27
2018-07-22T12:09:10.799Z,9.07
2018-07-22T12:11:39.277Z,10.17
2018-07-22T12:14:07.474Z,9.93
2018-07-22T12:16:35.951Z,9.97
2018-07-22T12:19:04.350Z,9.93
2018-07-22T12:21:32.990Z,10.37
2018-07-22T12:24:01.572Z,10.67
2018-07-22T12:26:31.274Z,9.00
2018-07-22T12:29:00.560Z,9.67
2018-07-22T12:31:29.173Z,10.10
2018-07-22T12:33:57.958Z,9.97
2018-07-22T12:36:26.643Z,10.07
2018-07-22T12:38:55.198Z,11.20
2018-07-22T12:41:23.960Z,9.77
2018-07-22T12:43:52.819Z,9.40
2018-07-22T12:46:22.497Z,9.10
2018-07-22T12:48:51.543Z,11.30
2018-07-22T12:51:19.898Z,8.83
2018-07-22T12:53:48.555Z,11.43
2018-07-22T12:56:17.887Z,8.63
2018-07-22T12:58:46.220Z,8.97
2018-07-22T13:01:14.706Z,9.47
2018-07-22T13:03:44.078Z,8.73
2018-07-22T13:06:12.735Z,9.17
2018-07-22T13:08:41.435Z,8.63
2018-07-22T13:11:09.889Z,8.30
2018-07-22T13:13:38.308Z,7.07
2018-07-22T13:16:07.122Z,7.93
2018-07-22T13:18:35.591Z,6.40
2018-07-22T13:21:04.131Z,6.30
2018-07-22T13:23:32.677Z,6.63
2018-07-22T13:26:01.315Z,7.17
2018-07-22T13:28:29.754Z,7.53
2018-07-22T13:30:58.303Z,7.17
2018-07-22T13:33:26.818Z,7.30
2018-07-22T13:35:55.355Z,7.07
2018-07-22T13:38:24.173Z,7.90
2018-07-22T13:40:53.210Z,7.50
2018-07-22T13:43:21.935Z,7.70
2018-07-22T13:45:50.710Z,7.97
2018-07-22T13:48:19.998Z,7.60
2018-07-22T13:50:49.234Z,8.63
2018-07-22T13:53:17.995Z,7.63
2018-07-22T13:55:52.290Z,7.73
2018-07-22T13:58:21.058Z,11.17
2018-07-22T14:00:50.243Z,7.77
2018-07-22T14:03:19.283Z,8.20
2018-07-22T14:05:47.857Z,8.63
2018-07-22T14:08:18.548Z,11.57
2018-07-22T14:10:47.983Z,9.30
2018-07-22T14:13:16.700Z,9.60
2018-07-22T14:15:45.206Z,8.73
2018-07-22T14:18:13.692Z,10.70
2018-07-22T14:20:42.206Z,9.97
2018-07-22T14:23:10.566Z,9.77
2018-07-22T14:25:39.159Z,7.93
2018-07-22T14:28:08.130Z,7.40
2018-07-22T14:30:36.522Z,7.77
2018-07-22T14:33:05.258Z,7.83
2018-07-22T14:35:39.447Z,8.33
2018-07-22T14:38:08.054Z,8.20
2018-07-22T14:40:36.944Z,8.20
2018-07-22T14:43:06.121Z,7.63
2018-07-22T14:45:34.550Z,7.17
2018-07-22T14:48:04.393Z,7.47
2018-07-22T14:50:33.218Z,7.53
2018-07-22T14:53:01.680Z,8.20
2018-07-22T14:55:30.143Z,7.70
2018-07-22T14:57:59.034Z,8.03
2018-07-22T15:00:27.710Z,7.97
2018-07-22T15:02:56.209Z,7.90
2018-07-22T15:05:24.928Z,7.87
2018-07-22T15:07:53.698Z,7.63
2018-07-22T15:10:22.859Z,7.90
2018-07-22T15:12:51.570Z,7.50
2018-07-22T15:15:20.378Z,7.10
2018-07-22T15:17:49.299Z,6.93
2018-07-22T15:20:17.895Z,7.60
2018-07-22T15:22:46.578Z,7.33
2018-07-22T15:25:15.132Z,7.90
2018-07-22T15:27:43.778Z,7.47
2018-07-22T15:30:12.311Z,6.13
2018-07-22T15:32:40.767Z,6.60
2018-07-22T15:35:09.552Z,6.90
2018-07-22T15:37:40.370Z,6.60
2018-07-22T15:40:10.081Z,5.43
2018-07-22T15:42:39.710Z,5.57
2018-07-22T15:45:09.072Z,5.57
2018-07-22T15:47:38.111Z,5.17
2018-07-22T15:50:11.082Z,5.43
2018-07-22T15:52:39.799Z,5.30
2018-07-22T15:55:08.923Z,4.00
2018-07-22T15:57:40.819Z,4.60
2018-07-22T16:00:10.560Z,4.60
2018-07-22T16:02:39.743Z,4.63
2018-07-22T16:05:08.643Z,4.30
2018-07-22T16:07:38.092Z,4.83
2018-07-22T16:10:08.042Z,5.13
2018-07-22T16:12:37.671Z,5.00
2018-07-22T16:15:07.594Z,5.10
2018-07-22T16:17:37.575Z,4.83
2018-07-22T16:20:07.244Z,4.47
2018-07-22T16:22:38.708Z,5.43
2018-07-22T16:25:07.770Z,4.73
2018-07-22T16:27:37.996Z,4.93
2018-07-22T16:30:08.286Z,4.57
2018-07-22T16:32:39.067Z,4.80
2018-07-22T16:35:09.043Z,5.47
2018-07-22T16:37:39.690Z,4.10
2018-07-22T16:40:08.826Z,4.80
2018-07-22T16:42:39.136Z,4.93
2018-07-22T16:45:08.299Z,4.83
2018-07-22T16:47:43.511Z,4.53
2018-07-22T16:50:11.902Z,4.80
2018-07-22T16:52:40.272Z,5.00
2018-07-22T16:55:09.274Z,5.27
2018-07-22T16:57:38.546Z,5.23
2018-07-22T17:00:07.990Z,4.97
2018-07-22T17:02:37.581Z,6.90
2018-07-22T17:05:06.041Z,7.40
2018-07-22T17:07:34.675Z,5.57
2018-07-22T17:10:19.301Z,5.50
2018-07-22T17:12:48.153Z,5.30
2018-07-22T17:15:16.738Z,6.10
2018-07-22T17:17:45.261Z,5.03
2018-07-22T17:20:17.734Z,5.10
2018-07-22T17:22:46.194Z,5.70
2018-07-22T17:25:14.620Z,6.13
2018-07-22T17:27:42.984Z,6.50
2018-07-22T17:30:11.443Z,5.70
2018-07-22T17:32:40.012Z,5.93
2018-07-22T17:35:08.498Z,5.93
2018-07-22T17:37:37.016Z,5.57
2018-07-22T17:40:15.357Z,5.90
2018-07-22T17:42:43.831Z,10.20
2018-07-22T17:45:12.290Z,7.07
2018-07-22T17:47:40.823Z,6.40
2018-07-22T17:50:09.306Z,5.77
2018-07-22T17:52:39.937Z,5.97
2018-07-22T17:55:08.453Z,6.43
2018-07-22T17:57:36.910Z,5.57
2018-07-22T18:00:05.719Z,7.23
2018-07-22T18:02:34.118Z,6.60
2018-07-22T18:05:02.515Z,7.50
2018-07-22T18:07:30.987Z,5.83
2018-07-22T18:09:59.442Z,8.93
2018-07-22T18:12:27.831Z,8.07
2018-07-22T18:14:56.338Z,7.00
2018-07-22T18:17:24.745Z,8.90
2018-07-22T18:19:53.376Z,6.83
2018-07-22T18:22:21.931Z,7.00
2018-07-22T18:24:50.543Z,6.77
2018-07-22T18:27:19.414Z,8.67
2018-07-22T18:29:48.041Z,8.43
2018-07-22T18:32:16.478Z,7.17
2018-07-22T18:34:44.948Z,6.90
2018-07-22T18:37:13.407Z,6.83
2018-07-22T18:39:41.739Z,7.03
2018-07-22T18:42:10.562Z,6.53
2018-07-22T18:44:39.165Z,6.90
2018-07-22T18:47:19.474Z,9.20
2018-07-22T18:49:47.921Z,7.43
2018-07-22T18:52:20.140Z,10.70
2018-07-22T18:54:49.061Z,7.90
2018-07-22T18:57:17.444Z,7.40
2018-07-22T18:59:46.005Z,7.13
2018-07-22T19:02:14.367Z,7.80
2018-07-22T19:04:42.854Z,7.30
2018-07-22T19:07:11.232Z,7.67
2018-07-22T19:09:39.811Z,7.57
2018-07-22T19:12:08.254Z,6.97
2018-07-22T19:14:36.400Z,8.00
2018-07-22T19:17:04.860Z,6.87
2018-07-22T19:19:33.399Z,7.67
2018-07-22T19:22:01.813Z,8.70
2018-07-22T19:24:30.346Z,8.73
2018-07-22T19:26:58.717Z,8.70
2018-07-22T19:29:27.270Z,7.97
2018-07-22T19:31:57.993Z,10.03
2018-07-22T19:34:26.553Z,7.87
2018-07-22T19:36:55.250Z,8.60
2018-07-22T19:39:23.733Z,8.57
2018-07-22T19:41:52.258Z,8.73
2018-07-22T19:44:20.965Z,8.90
2018-07-22T19:46:50.459Z,10.17
2018-07-22T19:49:19.225Z,9.43
2018-07-22T19:51:48.542Z,8.53
2018-07-22T19:54:17.323Z,9.37
2018-07-22T19:56:45.960Z,11.20
2018-07-22T19:59:14.892Z,8.80
2018-07-22T20:01:43.703Z,8.83
2018-07-22T20:04:13.617Z,12.27
2018-07-22T20:06:42.997Z,12.27
2018-07-22T20:09:12.666Z,9.60
2018-07-22T20:11:43.162Z,10.40
2018-07-22T20:14:11.663Z,9.00
2018-07-22T20:16:40.228Z,12.57
2018-07-22T20:19:08.990Z,8.73
2018-07-22T20:21:39.584Z,9.97
2018-07-22T20:24:12.211Z,9.03
2018-07-22T20:26:40.787Z,9.30
2018-07-22T20:29:13.895Z,11.00
2018-07-22T20:31:42.706Z,10.20
2018-07-22T20:34:11.375Z,13.73
2018-07-22T20:36:51.480Z,10.00
2018-07-22T20:39:20.254Z,11.30
2018-07-22T20:41:50.031Z,10.40
2018-07-22T20:44:23.932Z,15.43
2018-07-22T20:46:53.260Z,10.93
2018-07-22T20:49:22.050Z,12.80
2018-07-22T20:51:51.732Z,12.63
2018-07-22T20:54:20.982Z,10.83
2018-07-22T20:56:50.152Z,9.23
2018-07-22T20:59:20.138Z,9.87
2018-07-22T21:01:49.635Z,10.73
2018-07-22T21:04:18.636Z,9.03
2018-07-22T21:06:48.568Z,9.83
2018-07-22T21:09:18.911Z,12.50
2018-07-22T21:13:03.782Z,9.53
2018-07-22T21:15:32.870Z,10.80
2018-07-22T21:18:01.490Z,11.87
2018-07-22T21:20:29.986Z,9.67
2018-07-22T21:22:58.464Z,10.90
2018-07-22T21:25:27.062Z,12.40
2018-07-22T21:27:56.038Z,13.03
2018-07-22T21:30:24.777Z,12.13
2018-07-22T21:32:53.812Z,14.50
2018-07-22T21:35:23.042Z,14.67
2018-07-22T21:37:51.683Z,13.37
2018-07-22T21:40:20.951Z,25.33
2018-07-22T21:42:49.774Z,17.30
2018-07-22T21:45:18.582Z,13.90
2018-07-22T21:47:47.022Z,14.73
2018-07-22T21:50:15.463Z,19.70
2018-07-22T21:52:47.026Z,13.93
2018-07-22T21:55:15.482Z,12.33
2018-07-22T21:57:43.931Z,14.77
2018-07-22T22:00:19.467Z,15.67
2018-07-22T22:02:47.990Z,14.00
2018-07-22T22:05:16.438Z,17.10
2018-07-22T22:07:44.872Z,13.50
2018-07-22T22:10:13.266Z,15.53
2018-07-22T22:12:41.823Z,14.73
2018-07-22T22:15:17.503Z,15.57
2018-07-22T22:17:45.851Z,13.33
2018-07-22T22:20:14.284Z,14.60
2018-07-22T22:22:42.759Z,14.37
2018-07-22T22:25:11.368Z,16.10
2018-07-22T22:27:39.877Z,16.73
2018-07-22T22:30:10.038Z,15.03
2018-07-22T22:32:38.478Z,20.20
2018-07-22T22:35:07.011Z,16.87
2018-07-22T22:37:35.488Z,16.73
2018-07-22T22:40:04.252Z,18.53
2018-07-22T22:42:32.710Z,17.93
2018-07-22T22:45:01.295Z,17.73
2018-07-22T22:47:29.713Z,17.30
2018-07-22T22:49:58.107Z,18.20
2018-07-22T22:52:26.726Z,14.83
2018-07-22T22:54:55.282Z,18.10
2018-07-22T22:57:23.613Z,14.53
2018-07-22T22:59:52.222Z,17.67
2018-07-22T23:02:21.102Z,19.77
2018-07-22T23:04:49.987Z,15.10
2018-07-22T23:07:18.648Z,20.97
2018-07-22T23:09:47.090Z,17.30
2018-07-22T23:12:15.579Z,19.10
2018-07-22T23:14:43.986Z,15.20
2018-07-22T23:17:12.394Z,23.80
2018-07-22T23:19:41.094Z,19.73
2018-07-22T23:22:09.678Z,17.10
2018-07-22T23:24:38.184Z,16.30
2018-07-22T23:27:06.665Z,18.83
2018-07-22T23:29:35.063Z,19.90
2018-07-22T23:32:03.549Z,19.73
2018-07-22T23:34:31.898Z,20.23
2018-07-22T23:37:00.233Z,16.93
2018-07-22T23:39:28.529Z,26.37
2018-07-22T23:41:57.028Z,21.57
2018-07-22T23:44:25.661Z,23.60
2018-07-22T23:46:54.314Z,18.47
2018-07-22T23:49:23.149Z,17.93
2018-07-22T23:51:52.069Z,19.60
2018-07-22T23:54:21.008Z,21.57
2018-07-22T23:56:50.096Z,15.73
2018-07-22T23:59:18.722Z,17.67
